sensor_id;sensor_type;location;lat;lon;timestamp;pressure;altitude;pressure_sealevel;temperature;humidity
23433;BME280;41331;45.412;10.992;2023-12-29T00:00:03;101758.84;;;8.15;100.00
23433;BME280;41331;45.412;10.992;2023-12-29T00:02:32;101759.38;;;8.17;100.00
23433;BME280;41331;45.412;10.992;2023-12-29T00:05:00;101756.94;;;8.16;100.00
23433;BME280;41331;45.412;10.992;2023-12-29T00:07:27;101758.03;;;8.15;100.00
23433;BME280;41331;45.412;10.992;2023-12-29T00:09:55;101748.81;;;8.16;100.00
23433;BME280;41331;45.412;10.992;2023-12-29T00:12:23;101757.47;;;8.18;100.00
23433;BME280;41331;45.412;10.992;2023-12-29T00:14:51;101762.38;;;8.16;100.00
23433;BME280;41331;45.412;10.992;2023-12-29T00:17:19;101755.31;;;8.15;100.00
23433;BME280;41331;45.412;10.992;2023-12-29T00:19:47;101751.53;;;8.11;100.00
23433;BME280;41331;45.412;10.992;2023-12-29T00:22:15;101760.47;;;8.16;100.00
23433;BME280;41331;45.412;10.992;2023-12-29T00:24:42;101756.94;;;8.16;100.00
23433;BME280;41331;45.412;10.992;2023-12-29T00:27:10;101748.56;;;8.07;100.00
23433;BME280;41331;45.412;10.992;2023-12-29T00:29:39;101745.31;;;8.10;100.00
23433;BME280;41331;45.412;10.992;2023-12-29T00:32:07;101758.31;;;8.13;100.00
23433;BME280;41331;45.412;10.992;2023-12-29T00:34:35;101753.44;;;8.10;100.00
23433;BME280;41331;45.412;10.992;2023-12-29T00:37:05;101752.34;;;8.11;100.00
23433;BME280;41331;45.412;10.992;2023-12-29T00:39:34;101752.63;;;8.15;100.00
23433;BME280;41331;45.412;10.992;2023-12-29T00:42:07;101756.94;;;8.16;100.00
23433;BME280;41331;45.412;10.992;2023-12-29T00:44:35;101748.28;;;8.14;100.00
23433;BME280;41331;45.412;10.992;2023-12-29T00:47:03;101751.53;;;8.16;100.00
23433;BME280;41331;45.412;10.992;2023-12-29T00:49:31;101749.59;;;8.21;100.00
23433;BME280;41331;45.412;10.992;2023-12-29T00:51:58;101749.03;;;8.24;100.00
23433;BME280;41331;45.412;10.992;2023-12-29T00:54:27;101754.16;;;8.26;100.00
23433;BME280;41331;45.412;10.992;2023-12-29T00:56:57;101746.03;;;8.26;100.00
23433;BME280;41331;45.412;10.992;2023-12-29T00:59:24;101750.13;;;8.23;100.00
23433;BME280;41331;45.412;10.992;2023-12-29T01:01:52;101750.13;;;8.23;100.00
23433;BME280;41331;45.412;10.992;2023-12-29T01:04:20;101746.59;;;8.23;100.00
23433;BME280;41331;45.412;10.992;2023-12-29T01:06:48;101743.34;;;8.21;100.00
23433;BME280;41331;45.412;10.992;2023-12-29T01:09:16;101743.34;;;8.21;100.00
23433;BME280;41331;45.412;10.992;2023-12-29T01:11:44;101733.09;;;8.13;100.00
23433;BME280;41331;45.412;10.992;2023-12-29T01:14:13;101737.72;;;8.07;100.00
23433;BME280;41331;45.412;10.992;2023-12-29T01:16:41;101748.88;;;8.05;100.00
23433;BME280;41331;45.412;10.992;2023-12-29T01:19:10;101746.47;;;7.99;100.00
23433;BME280;41331;45.412;10.992;2023-12-29T01:21:38;101737.50;;;8.03;100.00
23433;BME280;41331;45.412;10.992;2023-12-29T01:24:06;101733.69;;;8.04;100.00
23433;BME280;41331;45.412;10.992;2023-12-29T01:26:37;101734.78;;;8.03;100.00
23433;BME280;41331;45.412;10.992;2023-12-29T01:29:06;101723.94;;;8.03;100.00
23433;BME280;41331;45.412;10.992;2023-12-29T01:31:34;101724.75;;;8.04;100.00
23433;BME280;41331;45.412;10.992;2023-12-29T01:34:02;101727.69;;;8.08;100.00
23433;BME280;41331;45.412;10.992;2023-12-29T01:36:30;101725.56;;;8.04;100.00
23433;BME280;41331;45.412;10.992;2023-12-29T01:38:58;101720.94;;;8.05;100.00
23433;BME280;41331;45.412;10.992;2023-12-29T01:41:25;101731.50;;;8.07;100.00
23433;BME280;41331;45.412;10.992;2023-12-29T01:46:25;101733.44;;;8.01;100.00
23433;BME280;41331;45.412;10.992;2023-12-29T01:48:53;101731.81;;;8.00;100.00
23433;BME280;41331;45.412;10.992;2023-12-29T01:51:23;101729.69;;;7.87;100.00
23433;BME280;41331;45.412;10.992;2023-12-29T01:53:52;101726.16;;;7.91;100.00
23433;BME280;41331;45.412;10.992;2023-12-29T01:56:21;101716.91;;;7.97;100.00
23433;BME280;41331;45.412;10.992;2023-12-29T01:58:51;101715.81;;;8.03;100.00
23433;BME280;41331;45.412;10.992;2023-12-29T02:01:18;101707.72;;;7.98;100.00
23433;BME280;41331;45.412;10.992;2023-12-29T02:03:47;101713.22;;;7.83;100.00
23433;BME280;41331;45.412;10.992;2023-12-29T02:06:16;101700.47;;;7.84;100.00
23433;BME280;41331;45.412;10.992;2023-12-29T02:08:45;101710.97;;;7.95;100.00
23433;BME280;41331;45.412;10.992;2023-12-29T02:11:14;101716.34;;;8.00;100.00
23433;BME280;41331;45.412;10.992;2023-12-29T02:13:41;101712.06;;;7.94;100.00
23433;BME280;41331;45.412;10.992;2023-12-29T02:16:19;101707.19;;;7.91;100.00
23433;BME280;41331;45.412;10.992;2023-12-29T02:18:50;101713.13;;;7.98;100.00
23433;BME280;41331;45.412;10.992;2023-12-29T02:21:26;101712.00;;;8.04;100.00
23433;BME280;41331;45.412;10.992;2023-12-29T02:23:54;101705.78;;;8.04;100.00
23433;BME280;41331;45.412;10.992;2023-12-29T02:26:25;101709.00;;;8.06;100.00
23433;BME280;41331;45.412;10.992;2023-12-29T02:29:00;101695.72;;;8.04;100.00
23433;BME280;41331;45.412;10.992;2023-12-29T02:31:30;101691.13;;;8.05;100.00
23433;BME280;41331;45.412;10.992;2023-12-29T02:34:03;101688.69;;;8.03;100.00
23433;BME280;41331;45.412;10.992;2023-12-29T02:36:34;101690.38;;;7.94;100.00
23433;BME280;41331;45.412;10.992;2023-12-29T02:39:10;101674.06;;;7.99;100.00
23433;BME280;41331;45.412;10.992;2023-12-29T02:41:38;101666.47;;;8.01;100.00
23433;BME280;41331;45.412;10.992;2023-12-29T02:44:07;101673.78;;;8.01;100.00
23433;BME280;41331;45.412;10.992;2023-12-29T02:46:35;101678.69;;;7.99;100.00
23433;BME280;41331;45.412;10.992;2023-12-29T02:49:02;101672.97;;;8.00;100.00
23433;BME280;41331;45.412;10.992;2023-12-29T02:51:30;101672.97;;;8.00;100.00
23433;BME280;41331;45.412;10.992;2023-12-29T02:53:58;101671.88;;;8.01;100.00
23433;BME280;41331;45.412;10.992;2023-12-29T02:56:27;101668.91;;;7.98;100.00
23433;BME280;41331;45.412;10.992;2023-12-29T02:58:55;101667.59;;;7.95;100.00
23433;BME280;41331;45.412;10.992;2023-12-29T03:01:22;101660.50;;;7.99;100.00
23433;BME280;41331;45.412;10.992;2023-12-29T03:03:51;101655.63;;;8.01;100.00
23433;BME280;41331;45.412;10.992;2023-12-29T03:06:18;101666.50;;;7.96;100.00
23433;BME280;41331;45.412;10.992;2023-12-29T03:08:46;101662.72;;;7.92;100.00
23433;BME280;41331;45.412;10.992;2023-12-29T03:11:14;101655.41;;;7.88;100.00
23433;BME280;41331;45.412;10.992;2023-12-29T03:13:42;101656.22;;;7.93;100.00
23433;BME280;41331;45.412;10.992;2023-12-29T03:16:10;101650.78;;;7.98;100.00
23433;BME280;41331;45.412;10.992;2023-12-29T03:18:38;101648.31;;;7.97;100.00
23433;BME280;41331;45.412;10.992;2023-12-29T03:21:07;101641.56;;;7.94;100.00
23433;BME280;41331;45.412;10.992;2023-12-29T03:23:36;101642.66;;;7.93;100.00
23433;BME280;41331;45.412;10.992;2023-12-29T03:26:04;101639.66;;;7.95;100.00
23433;BME280;41331;45.412;10.992;2023-12-29T03:28:31;101639.38;;;7.96;100.00
23433;BME280;41331;45.412;10.992;2023-12-29T03:30:59;101641.00;;;7.97;100.00
23433;BME280;41331;45.412;10.992;2023-12-29T03:33:27;101630.44;;;7.96;100.00
23433;BME280;41331;45.412;10.992;2023-12-29T03:35:55;101642.13;;;7.91;100.00
23433;BME280;41331;45.412;10.992;2023-12-29T03:38:23;101641.59;;;7.89;100.00
23433;BME280;41331;45.412;10.992;2023-12-29T03:40:51;101639.97;;;7.93;100.00
23433;BME280;41331;45.412;10.992;2023-12-29T03:43:19;101634.28;;;7.90;100.00
23433;BME280;41331;45.412;10.992;2023-12-29T03:45:47;101635.09;;;7.90;100.00
23433;BME280;41331;45.412;10.992;2023-12-29T03:48:15;101631.84;;;7.88;100.00
23433;BME280;41331;45.412;10.992;2023-12-29T03:50:43;101641.59;;;7.89;100.00
23433;BME280;41331;45.412;10.992;2023-12-29T03:53:10;101633.47;;;7.89;100.00
23433;BME280;41331;45.412;10.992;2023-12-29T03:55:38;101630.56;;;7.75;100.00
23433;BME280;41331;45.412;10.992;2023-12-29T03:58:06;101632.16;;;7.82;100.00
23433;BME280;41331;45.412;10.992;2023-12-29T04:00:35;101627.78;;;7.86;100.00
23433;BME280;41331;45.412;10.992;2023-12-29T04:03:04;101627.31;;;7.78;100.00
23433;BME280;41331;45.412;10.992;2023-12-29T04:05:31;101625.44;;;7.74;100.00
23433;BME280;41331;45.412;10.992;2023-12-29T04:08:00;101617.28;;;7.79;100.00
23433;BME280;41331;45.412;10.992;2023-12-29T04:10:28;101616.69;;;7.82;100.00
23433;BME280;41331;45.412;10.992;2023-12-29T04:12:57;101614.28;;;7.81;100.00
23433;BME280;41331;45.412;10.992;2023-12-29T04:15:25;101618.94;;;7.70;100.00
23433;BME280;41331;45.412;10.992;2023-12-29T04:17:52;101617.88;;;7.66;100.00
23433;BME280;41331;45.412;10.992;2023-12-29T04:20:20;101607.06;;;7.61;100.00
23433;BME280;41331;45.412;10.992;2023-12-29T04:22:48;101606.25;;;7.65;100.00
23433;BME280;41331;45.412;10.992;2023-12-29T04:25:16;101609.72;;;7.71;100.00
23433;BME280;41331;45.412;10.992;2023-12-29T04:27:44;101607.78;;;7.76;100.00
23433;BME280;41331;45.412;10.992;2023-12-29T04:30:12;101612.72;;;7.69;100.00
23433;BME280;41331;45.412;10.992;2023-12-29T04:32:40;101603.75;;;7.74;100.00
23433;BME280;41331;45.412;10.992;2023-12-29T04:35:07;101609.41;;;7.77;100.00
23433;BME280;41331;45.412;10.992;2023-12-29T04:37:39;101615.63;;;7.78;100.00
23433;BME280;41331;45.412;10.992;2023-12-29T04:40:07;101606.69;;;7.77;100.00
23433;BME280;41331;45.412;10.992;2023-12-29T04:42:35;101611.59;;;7.75;100.00
23433;BME280;41331;45.412;10.992;2023-12-29T04:45:04;101603.97;;;7.77;100.00
23433;BME280;41331;45.412;10.992;2023-12-29T04:47:32;101606.44;;;7.79;100.00
23433;BME280;41331;45.412;10.992;2023-12-29T04:49:59;101604.81;;;7.73;100.00
23433;BME280;41331;45.412;10.992;2023-12-29T04:52:28;101596.97;;;7.71;100.00
23433;BME280;41331;45.412;10.992;2023-12-29T04:54:55;101601.09;;;7.69;100.00
23433;BME280;41331;45.412;10.992;2023-12-29T04:57:23;101601.91;;;7.64;100.00
23433;BME280;41331;45.412;10.992;2023-12-29T04:59:51;101593.53;;;7.61;100.00
23433;BME280;41331;45.412;10.992;2023-12-29T05:02:19;101597.38;;;7.55;100.00
23433;BME280;41331;45.412;10.992;2023-12-29T05:04:47;101587.88;;;7.52;100.00
23433;BME280;41331;45.412;10.992;2023-12-29T05:07:15;101599.25;;;7.54;100.00
23433;BME280;41331;45.412;10.992;2023-12-29T05:09:43;101591.16;;;7.49;100.00
23433;BME280;41331;45.412;10.992;2023-12-29T05:12:11;101607.94;;;7.51;100.00
23433;BME280;41331;45.412;10.992;2023-12-29T05:14:39;101601.19;;;7.48;100.00
23433;BME280;41331;45.412;10.992;2023-12-29T05:17:07;101600.38;;;7.53;100.00
23433;BME280;41331;45.412;10.992;2023-12-29T05:19:35;101606.00;;;7.57;100.00
23433;BME280;41331;45.412;10.992;2023-12-29T05:22:03;101599.25;;;7.54;100.00
23433;BME280;41331;45.412;10.992;2023-12-29T05:24:31;101598.75;;;7.47;100.00
23433;BME280;41331;45.412;10.992;2023-12-29T05:26:59;101597.16;;;7.41;100.00
23433;BME280;41331;45.412;10.992;2023-12-29T05:29:27;101599.31;;;7.44;100.00
23433;BME280;41331;45.412;10.992;2023-12-29T05:31:54;101592.53;;;7.41;100.00
23433;BME280;41331;45.412;10.992;2023-12-29T05:34:22;101589.84;;;7.41;100.00
23433;BME280;41331;45.412;10.992;2023-12-29T05:36:50;101590.91;;;7.45;100.00
23433;BME280;41331;45.412;10.992;2023-12-29T05:39:18;101598.50;;;7.43;100.00
23433;BME280;41331;45.412;10.992;2023-12-29T05:41:46;101596.06;;;7.42;100.00
23433;BME280;41331;45.412;10.992;2023-12-29T05:44:13;101593.88;;;7.49;100.00
23433;BME280;41331;45.412;10.992;2023-12-29T05:46:46;101594.41;;;7.51;100.00
23433;BME280;41331;45.412;10.992;2023-12-29T05:49:14;101596.28;;;7.56;100.00
23433;BME280;41331;45.412;10.992;2023-12-29T05:51:44;101597.88;;;7.57;100.00
23433;BME280;41331;45.412;10.992;2023-12-29T05:54:12;101599.25;;;7.54;100.00
23433;BME280;41331;45.412;10.992;2023-12-29T05:56:39;101600.59;;;7.57;100.00
23433;BME280;41331;45.412;10.992;2023-12-29T05:59:07;101609.53;;;7.57;100.00
23433;BME280;41331;45.412;10.992;2023-12-29T06:01:35;101611.97;;;7.59;100.00
23433;BME280;41331;45.412;10.992;2023-12-29T06:04:03;101607.38;;;7.59;100.00
23433;BME280;41331;45.412;10.992;2023-12-29T06:06:31;101605.97;;;7.62;100.00
23433;BME280;41331;45.412;10.992;2023-12-29T06:08:59;101615.75;;;7.58;100.00
23433;BME280;41331;45.412;10.992;2023-12-29T06:11:26;101623.09;;;7.52;100.00
23433;BME280;41331;45.412;10.992;2023-12-29T06:13:54;101613.06;;;7.52;100.00
23433;BME280;41331;45.412;10.992;2023-12-29T06:16:22;101620.66;;;7.56;100.00
23433;BME280;41331;45.412;10.992;2023-12-29T06:18:52;101617.41;;;7.59;100.00
23433;BME280;41331;45.412;10.992;2023-12-29T06:21:20;101615.72;;;7.63;100.00
23433;BME280;41331;45.412;10.992;2023-12-29T06:23:48;101611.16;;;7.63;100.00
23433;BME280;41331;45.412;10.992;2023-12-29T06:26:20;101615.47;;;7.64;100.00
23433;BME280;41331;45.412;10.992;2023-12-29T06:28:48;101614.88;;;7.67;100.00
23433;BME280;41331;45.412;10.992;2023-12-29T06:31:17;101616.81;;;7.62;100.00
23433;BME280;41331;45.412;10.992;2023-12-29T06:33:44;101615.19;;;7.66;100.00
23433;BME280;41331;45.412;10.992;2023-12-29T06:36:12;101605.97;;;7.62;100.00
23433;BME280;41331;45.412;10.992;2023-12-29T06:38:41;101601.63;;;7.66;100.00
23433;BME280;41331;45.412;10.992;2023-12-29T06:41:09;101611.38;;;7.67;100.00
23433;BME280;41331;45.412;10.992;2023-12-29T06:43:38;101613.59;;;7.60;100.00
23433;BME280;41331;45.412;10.992;2023-12-29T06:46:07;101606.28;;;7.60;100.00
23433;BME280;41331;45.412;10.992;2023-12-29T06:48:36;101610.34;;;7.58;100.00
23433;BME280;41331;45.412;10.992;2023-12-29T06:51:04;101612.22;;;7.57;100.00
23433;BME280;41331;45.412;10.992;2023-12-29T06:53:32;101614.13;;;7.57;100.00
23433;BME280;41331;45.412;10.992;2023-12-29T06:56:00;101624.16;;;7.56;100.00
23433;BME280;41331;45.412;10.992;2023-12-29T06:58:28;101620.94;;;7.54;100.00
23433;BME280;41331;45.412;10.992;2023-12-29T07:00:58;101616.59;;;7.58;100.00
23433;BME280;41331;45.412;10.992;2023-12-29T07:03:26;101618.41;;;7.68;100.00
23433;BME280;41331;45.412;10.992;2023-12-29T07:05:54;101623.78;;;7.73;100.00
23433;BME280;41331;45.412;10.992;2023-12-29T07:08:22;101620.03;;;7.69;100.00
23433;BME280;41331;45.412;10.992;2023-12-29T07:10:49;101626.00;;;7.66;100.00
23433;BME280;41331;45.412;10.992;2023-12-29T07:13:17;101621.38;;;7.71;100.00
23433;BME280;41331;45.412;10.992;2023-12-29T07:15:47;101635.41;;;7.84;100.00
23433;BME280;41331;45.412;10.992;2023-12-29T07:18:15;101636.22;;;7.84;100.00
23433;BME280;41331;45.412;10.992;2023-12-29T07:20:43;101637.84;;;7.85;100.00
23433;BME280;41331;45.412;10.992;2023-12-29T07:23:11;101628.09;;;7.84;100.00
23433;BME280;41331;45.412;10.992;2023-12-29T07:25:39;101638.13;;;7.84;100.00
23433;BME280;41331;45.412;10.992;2023-12-29T07:28:07;101640.03;;;7.83;100.00
23433;BME280;41331;45.412;10.992;2023-12-29T07:30:35;101646.50;;;7.82;100.00
23433;BME280;41331;45.412;10.992;2023-12-29T07:33:03;101652.22;;;7.81;100.00
23433;BME280;41331;45.412;10.992;2023-12-29T07:35:31;101651.41;;;7.80;100.00
23433;BME280;41331;45.412;10.992;2023-12-29T07:37:59;101647.56;;;7.86;100.00
23433;BME280;41331;45.412;10.992;2023-12-29T07:40:27;101644.91;;;7.81;100.00
23433;BME280;41331;45.412;10.992;2023-12-29T07:42:55;101652.22;;;7.81;100.00
23433;BME280;41331;45.412;10.992;2023-12-29T07:45:23;101648.44;;;7.76;100.00
23433;BME280;41331;45.412;10.992;2023-12-29T07:47:52;101654.44;;;7.73;100.00
23433;BME280;41331;45.412;10.992;2023-12-29T07:50:20;101666.09;;;7.74;100.00
23433;BME280;41331;45.412;10.992;2023-12-29T07:52:48;101662.81;;;7.77;100.00
23433;BME280;41331;45.412;10.992;2023-12-29T07:55:16;101671.50;;;7.74;100.00
23433;BME280;41331;45.412;10.992;2023-12-29T07:57:44;101668.03;;;7.68;100.00
23433;BME280;41331;45.412;10.992;2023-12-29T08:00:15;101671.28;;;7.65;100.00
23433;BME280;41331;45.412;10.992;2023-12-29T08:02:43;101667.72;;;7.70;100.00
23433;BME280;41331;45.412;10.992;2023-12-29T08:05:10;101660.63;;;7.79;100.00
23433;BME280;41331;45.412;10.992;2023-12-29T08:07:38;101661.72;;;7.83;100.00
23433;BME280;41331;45.412;10.992;2023-12-29T08:10:07;101660.91;;;7.77;100.00
23433;BME280;41331;45.412;10.992;2023-12-29T08:12:35;101661.72;;;7.78;100.00
23433;BME280;41331;45.412;10.992;2023-12-29T08:15:04;101661.72;;;7.83;100.00
23433;BME280;41331;45.412;10.992;2023-12-29T08:17:32;101663.84;;;7.86;100.00
23433;BME280;41331;45.412;10.992;2023-12-29T08:20:00;101669.25;;;7.86;100.00
23433;BME280;41331;45.412;10.992;2023-12-29T08:22:30;101674.66;;;7.91;100.00
23433;BME280;41331;45.412;10.992;2023-12-29T08:24:59;101673.03;;;7.90;100.00
23433;BME280;41331;45.412;10.992;2023-12-29T08:27:27;101677.41;;;7.86;100.00
23433;BME280;41331;45.412;10.992;2023-12-29T08:29:55;101683.91;;;7.85;100.00
23433;BME280;41331;45.412;10.992;2023-12-29T08:32:23;101679.00;;;7.87;100.00
23433;BME280;41331;45.412;10.992;2023-12-29T08:34:51;101676.03;;;7.89;100.00
23433;BME280;41331;45.412;10.992;2023-12-29T08:37:19;101686.88;;;7.89;100.00
23433;BME280;41331;45.412;10.992;2023-12-29T08:39:48;101693.63;;;7.91;100.00
23433;BME280;41331;45.412;10.992;2023-12-29T08:42:16;101689.59;;;7.89;100.00
23433;BME280;41331;45.412;10.992;2023-12-29T08:44:44;101686.09;;;7.83;100.00
23433;BME280;41331;45.412;10.992;2023-12-29T08:47:12;101697.44;;;7.90;100.00
23433;BME280;41331;45.412;10.992;2023-12-29T08:49:41;101705.31;;;7.87;100.00
23433;BME280;41331;45.412;10.992;2023-12-29T08:52:09;101704.22;;;7.88;100.00
23433;BME280;41331;45.412;10.992;2023-12-29T08:54:37;101707.44;;;7.95;100.00
23433;BME280;41331;45.412;10.992;2023-12-29T08:57:04;101708.00;;;7.92;100.00
23433;BME280;41331;45.412;10.992;2023-12-29T08:59:34;101704.72;;;7.95;100.00
23433;BME280;41331;45.412;10.992;2023-12-29T09:02:02;101709.06;;;7.96;100.00
23433;BME280;41331;45.412;10.992;2023-12-29T09:04:30;101712.88;;;7.95;100.00
23433;BME280;41331;45.412;10.992;2023-12-29T09:06:58;101716.09;;;7.97;100.00
23433;BME280;41331;45.412;10.992;2023-12-29T09:09:26;101710.13;;;8.00;100.00
23433;BME280;41331;45.412;10.992;2023-12-29T09:11:54;101717.44;;;7.99;100.00
23433;BME280;41331;45.412;10.992;2023-12-29T09:14:21;101717.94;;;8.07;100.00
23433;BME280;41331;45.412;10.992;2023-12-29T09:16:49;101717.13;;;8.06;100.00
23433;BME280;41331;45.412;10.992;2023-12-29T09:19:18;101721.47;;;8.07;100.00
23433;BME280;41331;45.412;10.992;2023-12-29T09:22:02;101726.63;;;8.09;100.00
23433;BME280;41331;45.412;10.992;2023-12-29T09:24:30;101728.50;;;8.08;100.00
23433;BME280;41331;45.412;10.992;2023-12-29T09:26:58;101730.69;;;8.06;100.00
23433;BME280;41331;45.412;10.992;2023-12-29T09:29:26;101737.19;;;8.10;100.00
23433;BME280;41331;45.412;10.992;2023-12-29T09:31:54;101731.22;;;8.08;100.00
23433;BME280;41331;45.412;10.992;2023-12-29T09:34:21;101733.66;;;8.10;100.00
23433;BME280;41331;45.412;10.992;2023-12-29T09:36:49;101729.03;;;8.10;100.00
23433;BME280;41331;45.412;10.992;2023-12-29T09:39:17;101729.84;;;8.11;100.00
23433;BME280;41331;45.412;10.992;2023-12-29T09:41:46;101731.47;;;8.12;100.00
23433;BME280;41331;45.412;10.992;2023-12-29T09:44:20;101724.94;;;8.13;100.00
23433;BME280;41331;45.412;10.992;2023-12-29T09:46:50;101725.22;;;8.16;100.00
23433;BME280;41331;45.412;10.992;2023-12-29T09:49:19;101723.56;;;8.20;100.00
23433;BME280;41331;45.412;10.992;2023-12-29T09:51:48;101724.38;;;8.21;100.00
23433;BME280;41331;45.412;10.992;2023-12-29T09:54:16;101725.44;;;8.25;100.00
23433;BME280;41331;45.412;10.992;2023-12-29T09:56:44;101714.56;;;8.30;100.00
23433;BME280;41331;45.412;10.992;2023-12-29T09:59:13;101721.59;;;8.31;100.00
23433;BME280;41331;45.412;10.992;2023-12-29T10:01:42;101720.75;;;8.41;100.00
23433;BME280;41331;45.412;10.992;2023-12-29T10:04:12;101727.22;;;8.45;100.00
23433;BME280;41331;45.412;10.992;2023-12-29T10:06:41;101720.44;;;8.42;100.00
23433;BME280;41331;45.412;10.992;2023-12-29T10:09:17;101724.47;;;8.50;100.00
23433;BME280;41331;45.412;10.992;2023-12-29T10:11:47;101720.13;;;8.54;100.00
23433;BME280;41331;45.412;10.992;2023-12-29T10:14:27;101714.91;;;8.57;100.00
23433;BME280;41331;45.412;10.992;2023-12-29T10:17:04;101726.06;;;8.56;100.00
23433;BME280;41331;45.412;10.992;2023-12-29T10:19:39;101713.53;;;8.60;100.00
23433;BME280;41331;45.412;10.992;2023-12-29T10:22:33;101718.97;;;8.60;100.00
23433;BME280;41331;45.412;10.992;2023-12-29T10:25:05;101709.53;;;8.52;100.00
23433;BME280;41331;45.412;10.992;2023-12-29T10:27:34;101710.66;;;8.46;100.00
23433;BME280;41331;45.412;10.992;2023-12-29T10:30:02;101707.91;;;8.51;100.00
23433;BME280;41331;45.412;10.992;2023-12-29T10:32:31;101701.97;;;8.49;100.00
23433;BME280;41331;45.412;10.992;2023-12-29T10:35:09;101697.31;;;8.55;100.00
23433;BME280;41331;45.412;10.992;2023-12-29T10:37:38;101699.38;;;8.63;100.00
23433;BME280;41331;45.412;10.992;2023-12-29T10:40:07;101696.41;;;8.65;100.00
23433;BME280;41331;45.412;10.992;2023-12-29T10:42:35;101698.84;;;8.66;100.00
23433;BME280;41331;45.412;10.992;2023-12-29T10:45:09;101689.38;;;8.64;100.00
23433;BME280;41331;45.412;10.992;2023-12-29T10:47:37;101683.91;;;8.69;100.00
23433;BME280;41331;45.412;10.992;2023-12-29T10:50:10;101684.41;;;8.71;100.00
23433;BME280;41331;45.412;10.992;2023-12-29T10:52:38;101677.31;;;8.75;100.00
23433;BME280;41331;45.412;10.992;2023-12-29T10:55:09;101679.03;;;8.66;100.00
23433;BME280;41331;45.412;10.992;2023-12-29T10:57:40;101678.47;;;8.69;100.00
23433;BME280;41331;45.412;10.992;2023-12-29T11:00:08;101665.41;;;8.71;100.00
23433;BME280;41331;45.412;10.992;2023-12-29T11:02:36;101668.03;;;8.81;100.00
23433;BME280;41331;45.412;10.992;2023-12-29T11:05:06;101669.38;;;8.84;100.00
23433;BME280;41331;45.412;10.992;2023-12-29T11:07:36;101673.91;;;8.88;100.00
23433;BME280;41331;45.412;10.992;2023-12-29T11:10:06;101669.50;;;8.97;100.00
23433;BME280;41331;45.412;10.992;2023-12-29T11:12:36;101661.34;;;8.97;100.00
23433;BME280;41331;45.412;10.992;2023-12-29T11:15:06;101658.63;;;8.97;100.00
23433;BME280;41331;45.412;10.992;2023-12-29T11:17:35;101659.78;;;8.91;100.00
23433;BME280;41331;45.412;10.992;2023-12-29T11:20:04;101649.50;;;8.88;100.00
23433;BME280;41331;45.412;10.992;2023-12-29T11:22:32;101649.69;;;8.97;100.00
23433;BME280;41331;45.412;10.992;2023-12-29T11:25:01;101651.81;;;9.00;100.00
23433;BME280;41331;45.412;10.992;2023-12-29T11:27:30;101649.16;;;8.95;100.00
23433;BME280;41331;45.412;10.992;2023-12-29T11:29:59;101635.00;;;8.98;100.00
23433;BME280;41331;45.412;10.992;2023-12-29T11:35:32;101643.91;;;9.03;100.00
23433;BME280;41331;45.412;10.992;2023-12-29T11:38:35;101633.56;;;9.05;100.00
23433;BME280;41331;45.412;10.992;2023-12-29T11:41:31;101635.44;;;9.10;100.00
23433;BME280;41331;45.412;10.992;2023-12-29T11:44:00;101626.22;;;9.06;100.00
23433;BME280;41331;45.412;10.992;2023-12-29T11:46:36;101620.50;;;9.07;100.00
23433;BME280;41331;45.412;10.992;2023-12-29T11:49:05;101619.38;;;9.14;100.00
23433;BME280;41331;45.412;10.992;2023-12-29T11:51:36;101625.00;;;9.17;100.00
23433;BME280;41331;45.412;10.992;2023-12-29T11:54:06;101614.19;;;9.12;100.00
23433;BME280;41331;45.412;10.992;2023-12-29T11:56:39;101606.81;;;9.18;100.00
23433;BME280;41331;45.412;10.992;2023-12-29T12:01:47;101603.50;;;9.21;100.00
23433;BME280;41331;45.412;10.992;2023-12-29T12:12:47;101583.66;;;9.01;100.00
23433;BME280;41331;45.412;10.992;2023-12-29T12:17:57;101572.72;;;9.06;100.00
23433;BME280;41331;45.412;10.992;2023-12-29T12:20:25;101575.13;;;9.08;100.00
23433;BME280;41331;45.412;10.992;2023-12-29T12:22:59;101580.50;;;9.13;100.00
23433;BME280;41331;45.412;10.992;2023-12-29T12:25:28;101561.44;;;9.18;100.00
23433;BME280;41331;45.412;10.992;2023-12-29T12:27:57;101562.19;;;9.24;100.00
23433;BME280;41331;45.412;10.992;2023-12-29T12:30:25;101553.28;;;9.18;100.00
23433;BME280;41331;45.412;10.992;2023-12-29T12:33:03;101544.63;;;9.16;100.00
23433;BME280;41331;45.412;10.992;2023-12-29T12:35:33;101542.72;;;9.17;100.00
23433;BME280;41331;45.412;10.992;2023-12-29T12:38:12;101538.75;;;9.28;100.00
23433;BME280;41331;45.412;10.992;2023-12-29T12:40:41;101537.69;;;9.29;100.00
23433;BME280;41331;45.412;10.992;2023-12-29T12:43:13;101530.09;;;9.26;100.00
23433;BME280;41331;45.412;10.992;2023-12-29T12:45:51;101532.81;;;9.26;100.00
23433;BME280;41331;45.412;10.992;2023-12-29T12:48:44;101535.47;;;9.31;100.00
23433;BME280;41331;45.412;10.992;2023-12-29T12:51:11;101522.69;;;9.31;100.00
23433;BME280;41331;45.412;10.992;2023-12-29T12:53:43;101536.50;;;9.35;100.00
23433;BME280;41331;45.412;10.992;2023-12-29T12:56:17;101523.72;;;9.36;100.00
23433;BME280;41331;45.412;10.992;2023-12-29T12:58:47;101523.50;;;9.32;100.00
23433;BME280;41331;45.412;10.992;2023-12-29T13:01:15;101527.00;;;9.32;100.00
23433;BME280;41331;45.412;10.992;2023-12-29T13:03:43;101531.34;;;9.33;100.00
23433;BME280;41331;45.412;10.992;2023-12-29T13:06:13;101538.91;;;9.37;100.00
23433;BME280;41331;45.412;10.992;2023-12-29T13:08:41;101535.97;;;9.33;100.00